Time;durP1;ratioP1;P1;durP2;ratioP2;P2;SDS_P1;SDS_P2;PMS_P1;PMS_P2;Temp;Humidity;BMP_temperature;BMP_pressure;BME280_temperature;BME280_humidity;BME280_pressure;Samples;Min_cycle;Max_cycle;Signal;HPM_P1;HPM_P2
2023/05/06 00:00:34;;;;;;;4.90;2.57;;;13.30;99.90;;;;;;4964693;28;20204;-70
2023/05/06 00:03:00;;;;;;;4.43;1.93;;;13.30;99.90;;;;;;4971045;28;20451;-71
2023/05/06 00:05:26;;;;;;;4.27;1.97;;;13.30;99.90;;;;;;4970558;28;20667;-71
2023/05/06 00:07:52;;;;;;;2.80;1.97;;;13.30;99.90;;;;;;4971352;28;20223;-71
2023/05/06 00:10:18;;;;;;;5.13;2.13;;;13.30;99.90;;;;;;4971287;28;20187;-71
2023/05/06 00:12:43;;;;;;;3.10;2.07;;;13.30;99.90;;;;;;4971356;28;20194;-71
2023/05/06 00:15:09;;;;;;;4.23;1.63;;;13.30;99.90;;;;;;4971170;28;20271;-71
2023/05/06 00:17:35;;;;;;;5.77;2.20;;;13.30;99.90;;;;;;4971904;28;20220;-71
2023/05/06 00:20:02;;;;;;;3.03;1.60;;;13.30;99.90;;;;;;4970754;28;20456;-71
2023/05/06 00:22:28;;;;;;;3.33;1.57;;;13.20;99.90;;;;;;4959067;28;20188;-71
2023/05/06 00:24:53;;;;;;;2.80;1.60;;;13.20;99.90;;;;;;4971482;28;20430;-71
2023/05/06 00:27:19;;;;;;;3.50;1.77;;;13.20;99.90;;;;;;4971756;28;20208;-71
2023/05/06 00:29:44;;;;;;;3.40;1.50;;;13.20;99.90;;;;;;4971609;28;20891;-71
2023/05/06 00:32:10;;;;;;;2.90;1.93;;;13.10;99.90;;;;;;4969191;28;20216;-71
2023/05/06 00:34:36;;;;;;;3.80;1.80;;;13.20;99.90;;;;;;4952038;28;20189;-71
2023/05/06 00:37:02;;;;;;;2.70;2.00;;;13.20;99.90;;;;;;4962561;28;20189;-71
2023/05/06 00:39:28;;;;;;;4.03;2.17;;;13.10;99.90;;;;;;4974148;28;20388;-71
2023/05/06 00:42:01;;;;;;;2.53;1.30;;;13.20;99.90;;;;;;4974578;28;20266;-71
2023/05/06 00:44:27;;;;;;;5.40;1.77;;;13.10;99.90;;;;;;4974848;28;20428;-71
2023/05/06 00:46:54;;;;;;;3.47;1.87;;;13.10;99.90;;;;;;4974947;28;20506;-71
2023/05/06 00:49:20;;;;;;;3.10;1.63;;;13.10;99.90;;;;;;4974267;28;20423;-71
2023/05/06 00:51:46;;;;;;;3.97;1.90;;;13.10;99.90;;;;;;4972510;28;20502;-71
2023/05/06 00:54:12;;;;;;;9.40;2.77;;;13.00;99.90;;;;;;4969847;28;20192;-71
2023/05/06 00:56:38;;;;;;;9.13;1.70;;;13.00;99.90;;;;;;4974838;28;20649;-71
2023/05/06 00:59:04;;;;;;;3.40;1.53;;;13.00;99.90;;;;;;4964594;28;20512;-71
2023/05/06 01:01:30;;;;;;;2.50;1.77;;;13.00;99.90;;;;;;4970857;28;20195;-71
2023/05/06 01:03:57;;;;;;;2.80;1.77;;;13.00;99.90;;;;;;4972780;28;20260;-71
2023/05/06 01:06:34;;;;;;;6.47;2.17;;;13.00;99.90;;;;;;4974632;28;20428;-71
2023/05/06 01:09:10;;;;;;;3.33;1.97;;;13.00;99.90;;;;;;4974688;28;20648;-71
2023/05/06 01:11:48;;;;;;;3.00;1.60;;;12.90;99.90;;;;;;4974162;28;20756;-70
2023/05/06 01:14:26;;;;;;;4.30;2.80;;;12.90;99.90;;;;;;4968863;28;20787;-70
2023/05/06 01:16:55;;;;;;;4.10;2.13;;;12.90;99.90;;;;;;4968181;28;20427;-70
2023/05/06 01:19:35;;;;;;;4.87;2.10;;;12.80;99.90;;;;;;4973776;28;20428;-70
2023/05/06 01:22:04;;;;;;;3.40;2.20;;;12.80;99.90;;;;;;4960966;28;20439;-70
2023/05/06 01:24:41;;;;;;;3.33;1.90;;;12.80;99.90;;;;;;4965310;28;20435;-70
2023/05/06 01:27:08;;;;;;;3.33;1.97;;;12.70;99.90;;;;;;4974071;28;20467;-70
2023/05/06 01:29:35;;;;;;;4.60;2.43;;;12.70;99.90;;;;;;4974190;28;20416;-70
2023/05/06 01:32:27;;;;;;;2.83;1.80;;;12.70;99.90;;;;;;4972700;28;20507;-70
2023/05/06 01:35:05;;;;;;;12.63;1.97;;;12.70;99.90;;;;;;4948359;28;20777;-70
2023/05/06 01:37:46;;;;;;;5.10;1.73;;;12.70;99.90;;;;;;4956271;28;20466;-70
2023/05/06 01:40:12;;;;;;;8.10;1.43;;;12.60;99.90;;;;;;4973907;28;20989;-70
2023/05/06 01:42:39;;;;;;;3.10;1.83;;;12.60;99.90;;;;;;4973415;28;20463;-70
2023/05/06 01:45:06;;;;;;;3.93;2.17;;;12.60;99.90;;;;;;4973904;28;20454;-70
2023/05/06 01:47:32;;;;;;;2.60;1.80;;;12.60;99.90;;;;;;4974069;28;20467;-70
2023/05/06 01:49:58;;;;;;;7.37;2.30;;;12.60;99.90;;;;;;4972940;28;20435;-70
2023/05/06 01:52:25;;;;;;;6.10;1.83;;;12.60;99.90;;;;;;4966526;28;20425;-70
2023/05/06 01:54:50;;;;;;;4.50;1.57;;;12.60;99.90;;;;;;4973265;28;20587;-70
2023/05/06 01:57:16;;;;;;;3.37;1.70;;;12.70;99.90;;;;;;4973676;28;20522;-70
2023/05/06 01:59:42;;;;;;;2.07;1.27;;;12.60;99.90;;;;;;4973768;28;20263;-70
2023/05/06 02:02:07;;;;;;;3.40;1.70;;;12.60;99.90;;;;;;4968417;28;20220;-70
2023/05/06 02:04:33;;;;;;;2.10;1.30;;;12.70;99.90;;;;;;4962816;28;20567;-70
2023/05/06 02:06:58;;;;;;;2.30;1.50;;;12.60;99.90;;;;;;4973462;28;20208;-70
2023/05/06 02:09:24;;;;;;;1.83;1.17;;;12.60;99.90;;;;;;4973177;28;20188;-70
2023/05/06 02:11:50;;;;;;;2.40;1.20;;;12.60;99.90;;;;;;4972790;28;20195;-70
2023/05/06 02:14:16;;;;;;;3.63;2.03;;;12.60;99.90;;;;;;4972419;28;20184;-70
2023/05/06 02:16:41;;;;;;;3.17;1.80;;;12.60;99.90;;;;;;4973478;28;20267;-70
2023/05/06 02:19:07;;;;;;;2.20;1.37;;;12.60;99.90;;;;;;4972939;28;20192;-70
2023/05/06 02:21:33;;;;;;;2.63;1.50;;;12.50;99.90;;;;;;4960215;28;20196;-70
2023/05/06 02:23:59;;;;;;;5.83;1.50;;;12.50;99.90;;;;;;4962434;28;20192;-70
2023/05/06 02:26:25;;;;;;;1.80;1.03;;;12.50;99.90;;;;;;4973291;28;20435;-70
2023/05/06 02:28:50;;;;;;;2.00;1.10;;;12.50;99.90;;;;;;4972860;28;20181;-70
2023/05/06 02:31:16;;;;;;;5.93;1.90;;;12.50;99.90;;;;;;4973380;28;20885;-70
2023/05/06 02:33:43;;;;;;;5.00;2.50;;;12.50;99.90;;;;;;4958457;28;20192;-70
2023/05/06 02:36:09;;;;;;;4.97;1.63;;;12.60;99.90;;;;;;4956405;28;20276;-70
2023/05/06 02:38:35;;;;;;;1.87;1.30;;;12.40;99.90;;;;;;4972347;28;20514;-70
2023/05/06 02:41:00;;;;;;;3.07;1.57;;;12.40;99.90;;;;;;4972627;28;20622;-70
2023/05/06 02:43:26;;;;;;;2.67;1.47;;;12.40;99.90;;;;;;4972654;28;20239;-70
2023/05/06 02:45:51;;;;;;;2.83;1.63;;;12.40;99.90;;;;;;4972825;28;20212;-70
2023/05/06 02:48:17;;;;;;;6.90;1.77;;;12.30;99.90;;;;;;4972825;28;20237;-70
2023/05/06 02:50:43;;;;;;;3.50;1.40;;;12.40;99.90;;;;;;4972170;28;20602;-70
2023/05/06 02:53:09;;;;;;;5.10;1.73;;;12.40;99.90;;;;;;4963522;28;20264;-70
2023/05/06 02:55:35;;;;;;;2.47;1.30;;;12.40;99.90;;;;;;4972609;28;20189;-70
2023/05/06 02:58:01;;;;;;;2.50;1.57;;;12.30;99.90;;;;;;4969304;28;20427;-70
2023/05/06 03:00:26;;;;;;;3.13;1.70;;;12.40;99.90;;;;;;4961990;28;20792;-70
2023/05/06 03:02:52;;;;;;;6.60;2.07;;;12.40;99.90;;;;;;4970435;28;20191;-70
2023/05/06 03:05:18;;;;;;;6.43;1.87;;;12.40;99.90;;;;;;4971958;28;20188;-70
2023/05/06 03:07:43;;;;;;;2.17;1.47;;;12.40;99.90;;;;;;4972543;28;20227;-70
2023/05/06 03:10:09;;;;;;;3.67;1.33;;;12.30;99.90;;;;;;4972520;28;20748;-70
2023/05/06 03:12:35;;;;;;;2.97;1.83;;;12.30;99.90;;;;;;4971762;28;20189;-70
2023/05/06 03:15:00;;;;;;;2.93;1.50;;;12.30;99.90;;;;;;4971340;28;20200;-70
2023/05/06 03:17:26;;;;;;;4.07;1.60;;;12.30;99.90;;;;;;4972307;28;20188;-70
2023/05/06 03:19:51;;;;;;;2.60;1.60;;;12.20;99.90;;;;;;4971747;28;20516;-70
2023/05/06 03:22:17;;;;;;;3.80;2.30;;;12.20;99.90;;;;;;4956551;28;20188;-70
2023/05/06 03:24:43;;;;;;;4.13;1.80;;;12.10;99.90;;;;;;4953244;28;20207;-70
2023/05/06 03:27:09;;;;;;;3.90;1.73;;;12.10;99.90;;;;;;4971255;28;20214;-70
2023/05/06 03:29:34;;;;;;;6.67;1.80;;;12.10;99.90;;;;;;4972202;28;20503;-70
2023/05/06 03:32:04;;;;;;;7.23;1.93;;;12.00;99.90;;;;;;4971165;28;20185;-70
2023/05/06 03:34:29;;;;;;;5.30;2.00;;;12.00;99.90;;;;;;4952484;28;20188;-70
2023/05/06 03:36:56;;;;;;;7.13;1.83;;;11.90;99.90;;;;;;4961109;28;20427;-70
2023/05/06 03:39:22;;;;;;;3.70;1.70;;;11.80;99.90;;;;;;4972226;28;20192;-70
2023/05/06 03:41:48;;;;;;;5.00;1.80;;;11.80;99.90;;;;;;4971793;28;20451;-71
2023/05/06 03:44:13;;;;;;;5.30;1.97;;;11.70;99.90;;;;;;4972071;28;20438;-71
2023/05/06 03:46:40;;;;;;;4.40;2.20;;;11.60;99.90;;;;;;4971793;28;20580;-71
2023/05/06 03:49:06;;;;;;;3.37;1.80;;;11.50;99.90;;;;;;4971816;28;20316;-71
2023/05/06 03:51:32;;;;;;;2.60;1.80;;;11.50;99.90;;;;;;4971332;28;20427;-71
2023/05/06 03:53:58;;;;;;;3.20;1.87;;;11.40;99.90;;;;;;4963868;28;20428;-71
2023/05/06 03:56:23;;;;;;;2.93;2.10;;;11.40;99.90;;;;;;4972133;28;20184;-71
2023/05/06 03:58:49;;;;;;;6.10;2.53;;;11.30;99.90;;;;;;4962756;28;20211;-71
2023/05/06 04:01:16;;;;;;;4.30;1.90;;;11.30;99.90;;;;;;4965267;28;20672;-71
2023/05/06 04:03:43;;;;;;;3.50;1.93;;;11.20;99.90;;;;;;4968462;28;20185;-71
2023/05/06 04:06:08;;;;;;;4.77;1.97;;;11.30;99.90;;;;;;4971067;28;20459;-71
2023/05/06 04:08:34;;;;;;;4.93;1.67;;;11.30;99.90;;;;;;4972079;28;20475;-71
2023/05/06 04:11:06;;;;;;;5.90;2.00;;;11.20;99.90;;;;;;4971908;28;20181;-71
2023/05/06 04:13:33;;;;;;;4.43;2.67;;;11.20;99.90;;;;;;4972919;28;20616;-71
2023/05/06 04:15:59;;;;;;;5.00;2.50;;;11.10;99.90;;;;;;4976001;28;20419;-71
2023/05/06 04:18:25;;;;;;;2.80;1.80;;;11.10;99.90;;;;;;4976111;28;20522;-71
2023/05/06 04:20:50;;;;;;;5.43;2.20;;;11.00;99.90;;;;;;4968262;28;20528;-71
2023/05/06 04:23:16;;;;;;;5.70;2.30;;;10.90;99.90;;;;;;4959362;28;20638;-71
2023/05/06 04:25:47;;;;;;;3.53;2.03;;;10.90;99.90;;;;;;4975573;28;20185;-71
2023/05/06 04:28:13;;;;;;;3.90;2.50;;;10.90;99.90;;;;;;4975354;28;20216;-71
2023/05/06 04:30:39;;;;;;;7.87;2.97;;;11.00;99.90;;;;;;4975604;28;20468;-71
2023/05/06 04:33:06;;;;;;;11.53;3.10;;;10.90;99.90;;;;;;4967117;28;20439;-71
2023/05/06 04:35:32;;;;;;;3.60;2.40;;;10.80;99.90;;;;;;4959020;28;20417;-71
2023/05/06 04:37:58;;;;;;;4.80;3.40;;;10.80;99.90;;;;;;4957643;28;20507;-71
2023/05/06 04:40:25;;;;;;;13.37;2.50;;;10.90;99.90;;;;;;4975324;28;20558;-71
2023/05/06 04:42:51;;;;;;;9.23;2.73;;;10.90;99.90;;;;;;4974431;28;20189;-71
2023/05/06 04:45:17;;;;;;;5.70;3.07;;;10.80;99.90;;;;;;4975318;28;20447;-71
2023/05/06 04:47:43;;;;;;;3.80;2.60;;;10.80;99.90;;;;;;4975220;28;20471;-71
2023/05/06 04:50:09;;;;;;;5.10;2.70;;;10.80;99.90;;;;;;4974710;28;20454;-71
2023/05/06 04:52:35;;;;;;;3.30;2.13;;;10.80;99.90;;;;;;4968010;28;20189;-71
2023/05/06 04:55:01;;;;;;;5.47;2.70;;;10.80;99.90;;;;;;4975148;28;20428;-71
2023/05/06 04:57:27;;;;;;;2.40;1.80;;;10.80;99.90;;;;;;4975102;28;20192;-71
2023/05/06 04:59:52;;;;;;;3.67;2.20;;;10.80;99.90;;;;;;4965529;28;20431;-71
2023/05/06 05:02:18;;;;;;;4.57;2.37;;;10.80;99.90;;;;;;4969883;28;20195;-71
2023/05/06 05:04:43;;;;;;;4.23;2.47;;;10.90;99.90;;;;;;4972486;28;20613;-71
2023/05/06 05:07:09;;;;;;;2.80;1.90;;;10.90;99.90;;;;;;4969239;28;20884;-71
2023/05/06 05:09:35;;;;;;;3.33;2.20;;;10.90;99.90;;;;;;4974794;28;20199;-71
2023/05/06 05:12:02;;;;;;;5.13;2.50;;;10.90;99.90;;;;;;4974282;28;20192;-71
2023/05/06 05:14:27;;;;;;;6.43;3.50;;;10.90;99.90;;;;;;4973595;28;20196;-71
2023/05/06 05:16:53;;;;;;;4.60;2.60;;;11.00;99.90;;;;;;4974942;28;20933;-71
2023/05/06 05:19:18;;;;;;;5.33;3.07;;;11.10;99.90;;;;;;4974399;28;20540;-71
2023/05/06 05:21:44;;;;;;;5.00;2.50;;;11.20;99.90;;;;;;4960670;28;20193;-71
2023/05/06 05:24:10;;;;;;;4.00;1.90;;;11.30;99.90;;;;;;4973871;28;20276;-71
2023/05/06 05:26:35;;;;;;;2.67;1.70;;;11.40;99.90;;;;;;4974619;28;20234;-71
2023/05/06 05:29:01;;;;;;;2.70;1.63;;;11.50;99.90;;;;;;4974577;28;20189;-71
2023/05/06 05:31:26;;;;;;;4.73;2.57;;;11.50;99.90;;;;;;4974350;28;20235;-71
2023/05/06 05:33:52;;;;;;;2.47;1.53;;;11.60;99.90;;;;;;4958406;28;20173;-72
2023/05/06 05:36:18;;;;;;;3.03;1.63;;;11.70;99.90;;;;;;4955546;28;20630;-72
2023/05/06 05:38:46;;;;;;;7.17;2.00;;;11.60;99.90;;;;;;4974414;28;20184;-71
2023/05/06 05:41:12;;;;;;;5.00;1.93;;;11.80;99.90;;;;;;4974050;28;20182;-71
2023/05/06 05:43:37;;;;;;;3.20;1.40;;;11.80;99.90;;;;;;4973951;28;20420;-71
2023/05/06 05:46:03;;;;;;;3.00;1.80;;;11.90;99.90;;;;;;4974185;28;20618;-71
2023/05/06 05:48:31;;;;;;;4.50;2.00;;;12.00;99.90;;;;;;4974365;28;20219;-71
2023/05/06 05:50:57;;;;;;;4.37;2.10;;;12.00;99.90;;;;;;4973409;28;20199;-71
2023/05/06 05:53:23;;;;;;;2.03;1.47;;;12.20;99.90;;;;;;4966239;28;20424;-71
2023/05/06 05:55:48;;;;;;;3.67;1.83;;;12.10;99.90;;;;;;4973450;28;20196;-71
2023/05/06 05:58:14;;;;;;;2.63;1.87;;;12.30;99.90;;;;;;4973556;28;20180;-71
2023/05/06 06:00:39;;;;;;;3.17;1.47;;;12.30;99.90;;;;;;4970084;28;20264;-71
2023/05/06 06:03:05;;;;;;;2.23;1.63;;;12.40;99.90;;;;;;4971800;28;20290;-71
2023/05/06 06:05:31;;;;;;;4.43;2.10;;;12.50;99.90;;;;;;4970901;28;20967;-71
2023/05/06 06:07:57;;;;;;;3.33;1.87;;;12.60;99.90;;;;;;4972651;28;20204;-71
2023/05/06 06:10:23;;;;;;;2.63;1.40;;;12.60;99.90;;;;;;4973007;28;20180;-71
2023/05/06 06:12:49;;;;;;;2.67;1.33;;;12.70;99.90;;;;;;4971942;28;20420;-71
2023/05/06 06:15:15;;;;;;;2.30;1.50;;;12.70;99.90;;;;;;4971044;28;20252;-71
2023/05/06 06:17:40;;;;;;;2.13;1.53;;;12.80;99.90;;;;;;4972123;28;20208;-71
2023/05/06 06:20:07;;;;;;;2.20;1.27;;;12.80;99.90;;;;;;4970770;28;20211;-71
2023/05/06 06:22:32;;;;;;;2.30;1.50;;;12.90;99.90;;;;;;4960848;28;20204;-71
2023/05/06 06:24:58;;;;;;;2.00;1.07;;;12.80;99.90;;;;;;4972840;28;20420;-71
2023/05/06 06:27:23;;;;;;;4.50;1.87;;;13.00;99.90;;;;;;4973633;28;20548;-71
2023/05/06 06:29:49;;;;;;;2.87;1.50;;;13.10;99.90;;;;;;4973322;28;20263;-71
2023/05/06 06:32:15;;;;;;;2.87;1.00;;;13.20;99.90;;;;;;4970445;28;20211;-71
2023/05/06 06:34:41;;;;;;;2.33;1.47;;;13.30;99.90;;;;;;4952824;28;20221;-71
2023/05/06 06:37:09;;;;;;;5.67;2.10;;;13.30;99.90;;;;;;4961990;28;20192;-71
2023/05/06 06:39:35;;;;;;;7.50;1.60;;;13.40;99.90;;;;;;4973316;28;20562;-71
2023/05/06 06:42:03;;;;;;;2.37;1.20;;;13.40;99.90;;;;;;4972836;28;20439;-71
2023/05/06 06:44:33;;;;;;;4.27;1.63;;;13.50;99.90;;;;;;4959825;28;20185;-71
2023/05/06 06:46:58;;;;;;;2.47;1.73;;;13.60;99.90;;;;;;4973019;28;20991;-72
2023/05/06 06:49:26;;;;;;;2.37;1.40;;;13.80;99.90;;;;;;4972874;28;20443;-71
2023/05/06 06:51:51;;;;;;;5.93;1.17;;;13.90;99.90;;;;;;4969984;28;20963;-71
2023/05/06 06:54:17;;;;;;;2.87;1.77;;;14.00;99.90;;;;;;4968223;28;20420;-69
2023/05/06 06:56:42;;;;;;;2.90;1.57;;;14.10;99.90;;;;;;4972966;28;20526;-69
2023/05/06 06:59:08;;;;;;;2.20;1.27;;;14.30;99.90;;;;;;4962660;28;20185;-69
2023/05/06 07:01:34;;;;;;;3.30;2.00;;;14.40;99.90;;;;;;4972605;28;20670;-70
2023/05/06 07:03:59;;;;;;;3.50;1.47;;;14.50;99.90;;;;;;4970342;28;20184;-70
2023/05/06 07:06:25;;;;;;;3.40;1.80;;;14.60;99.90;;;;;;4972824;28;20234;-69
2023/05/06 07:08:50;;;;;;;14.23;2.10;;;14.80;99.90;;;;;;4972802;28;20185;-70
2023/05/06 07:11:16;;;;;;;4.33;2.10;;;14.70;99.90;;;;;;4968405;28;20209;-70
2023/05/06 07:13:42;;;;;;;2.73;1.60;;;14.60;99.90;;;;;;4965686;28;20189;-69
2023/05/06 07:16:07;;;;;;;3.80;1.70;;;14.40;99.90;;;;;;4972533;28;20643;-69
2023/05/06 07:18:33;;;;;;;3.43;1.60;;;14.50;99.90;;;;;;4973039;28;20196;-69
2023/05/06 07:20:58;;;;;;;2.73;1.87;;;14.50;99.90;;;;;;4964368;28;20324;-70
2023/05/06 07:23:24;;;;;;;4.57;2.00;;;14.40;99.90;;;;;;4968123;28;20188;-69
2023/05/06 07:25:49;;;;;;;3.00;1.30;;;14.40;99.90;;;;;;4972649;28;20188;-69
2023/05/06 07:28:15;;;;;;;2.67;1.27;;;14.40;99.90;;;;;;4972531;28;20208;-70
2023/05/06 07:30:41;;;;;;;2.43;1.30;;;14.70;99.90;;;;;;4972230;28;20617;-70
2023/05/06 07:33:07;;;;;;;3.23;1.50;;;15.70;99.90;;;;;;4963752;28;20194;-70
2023/05/06 07:35:32;;;;;;;2.10;1.23;;;16.80;99.90;;;;;;4955664;28;20420;-70
2023/05/06 07:37:58;;;;;;;1.83;1.10;;;18.00;99.90;;;;;;4967458;28;20192;-70
2023/05/06 07:40:24;;;;;;;5.00;1.27;;;19.00;99.90;;;;;;4972193;28;20279;-71
2023/05/06 07:42:49;;;;;;;3.23;1.47;;;19.40;99.90;;;;;;4959285;28;20195;-70
2023/05/06 07:45:15;;;;;;;2.17;1.00;;;20.10;99.30;;;;;;4972284;28;20220;-70
2023/05/06 07:47:41;;;;;;;2.23;1.17;;;20.50;97.30;;;;;;4958684;28;20241;-70
2023/05/06 07:50:07;;;;;;;2.80;1.37;;;20.20;99.50;;;;;;4971939;28;20240;-70
2023/05/06 07:52:33;;;;;;;2.13;1.07;;;20.70;96.80;;;;;;4964447;28;20795;-70
2023/05/06 07:54:59;;;;;;;2.60;1.47;;;21.50;95.10;;;;;;4972124;28;20419;-70
2023/05/06 07:57:24;;;;;;;1.90;0.80;;;21.10;96.10;;;;;;4972424;28;20230;-70
2023/05/06 07:59:51;;;;;;;1.77;0.97;;;20.90;96.70;;;;;;4972097;28;20188;-70
2023/05/06 08:02:17;;;;;;;2.60;1.30;;;20.60;97.00;;;;;;4968045;28;20657;-70
2023/05/06 08:04:44;;;;;;;2.07;1.03;;;19.80;97.40;;;;;;4972046;28;20422;-69
2023/05/06 08:07:10;;;;;;;2.43;1.20;;;19.00;98.30;;;;;;4971815;28;20482;-69
2023/05/06 08:09:36;;;;;;;3.00;1.40;;;18.20;99.60;;;;;;4972131;28;20944;-69
2023/05/06 08:12:02;;;;;;;2.50;0.97;;;17.50;99.90;;;;;;4971852;28;20498;-69
2023/05/06 08:14:27;;;;;;;3.37;1.20;;;17.20;99.70;;;;;;4971021;28;20188;-69
2023/05/06 08:16:53;;;;;;;7.30;1.10;;;16.90;99.90;;;;;;4972191;28;20192;-69
2023/05/06 08:19:20;;;;;;;2.23;1.00;;;16.70;99.90;;;;;;4946149;28;20191;-70
2023/05/06 08:21:47;;;;;;;4.23;1.53;;;17.60;99.90;;;;;;4958664;28;20779;-70
2023/05/06 08:24:12;;;;;;;1.80;1.07;;;19.00;98.50;;;;;;4962391;28;20518;-70
2023/05/06 08:26:38;;;;;;;2.13;1.33;;;19.90;97.20;;;;;;4970080;28;20510;-70
2023/05/06 08:29:05;;;;;;;5.10;1.30;;;20.50;96.50;;;;;;4960528;28;20184;-70
2023/05/06 08:31:31;;;;;;;2.57;1.00;;;21.20;95.10;;;;;;4971496;28;20231;-70
2023/05/06 08:33:56;;;;;;;1.83;0.77;;;21.70;94.00;;;;;;4956574;28;20432;-70
2023/05/06 08:36:22;;;;;;;1.50;0.80;;;22.30;93.20;;;;;;4957544;28;20347;-70
2023/05/06 08:38:49;;;;;;;2.00;1.00;;;22.50;93.00;;;;;;4971741;28;20559;-70
2023/05/06 08:41:18;;;;;;;2.10;0.83;;;22.40;92.60;;;;;;4962379;28;20208;-70
2023/05/06 08:43:45;;;;;;;1.83;1.00;;;22.00;92.90;;;;;;4971010;28;20208;-70
2023/05/06 08:46:12;;;;;;;3.73;1.03;;;21.20;94.30;;;;;;4971786;28;20219;-70
2023/05/06 08:48:38;;;;;;;2.37;0.80;;;20.20;96.00;;;;;;4971713;28;20466;-69
2023/05/06 08:51:04;;;;;;;2.23;1.00;;;19.60;95.20;;;;;;4957812;28;20511;-70
2023/05/06 08:53:32;;;;;;;2.27;0.57;;;19.00;97.70;;;;;;4971565;28;20924;-70
2023/05/06 08:56:03;;;;;;;2.20;0.80;;;19.10;97.00;;;;;;4971803;28;20885;-70
2023/05/06 08:58:32;;;;;;;3.10;0.90;;;19.60;96.20;;;;;;4965130;28;20515;-70
2023/05/06 09:00:58;;;;;;;2.20;0.90;;;20.50;93.60;;;;;;4966015;28;20423;-70
2023/05/06 09:03:24;;;;;;;2.53;1.00;;;20.90;93.90;;;;;;4974944;28;20423;-70
2023/05/06 09:05:50;;;;;;;4.03;0.70;;;21.10;92.90;;;;;;4974909;28;20455;-70
2023/05/06 09:08:16;;;;;;;1.63;0.70;;;21.50;93.00;;;;;;4975651;28;20238;-70
2023/05/06 09:10:43;;;;;;;1.90;0.90;;;21.30;92.90;;;;;;4975420;28;20176;-70
2023/05/06 09:13:14;;;;;;;1.87;0.80;;;21.40;92.50;;;;;;4975024;28;20184;-71
2023/05/06 09:15:40;;;;;;;4.77;0.90;;;21.50;93.30;;;;;;4974340;28;20279;-70
2023/05/06 09:18:06;;;;;;;2.30;1.00;;;21.90;91.20;;;;;;4974940;28;20187;-70
2023/05/06 09:20:33;;;;;;;1.50;0.60;;;22.20;91.00;;;;;;4969777;28;20185;-70
2023/05/06 09:23:00;;;;;;;2.30;0.70;;;22.20;90.20;;;;;;4957356;28;20188;-70
2023/05/06 09:25:26;;;;;;;5.53;0.90;;;21.90;91.00;;;;;;4972817;28;20190;-70
2023/05/06 09:28:05;;;;;;;1.70;0.73;;;21.40;91.50;;;;;;4974732;28;20195;-70
2023/05/06 09:30:31;;;;;;;1.50;0.60;;;21.30;92.20;;;;;;4962126;28;20307;-70
2023/05/06 09:32:57;;;;;;;2.53;0.87;;;21.80;91.10;;;;;;4967153;28;20641;-70
2023/05/06 09:35:34;;;;;;;1.40;0.60;;;21.20;92.50;;;;;;4958767;28;20185;-70
2023/05/06 09:38:00;;;;;;;4.73;0.87;;;20.70;91.40;;;;;;4956848;28;20180;-70
2023/05/06 09:40:27;;;;;;;14.60;2.10;;;20.90;91.30;;;;;;4974273;28;20474;-69
2023/05/06 09:42:53;;;;;;;1.70;0.77;;;20.60;90.80;;;;;;4973666;28;20219;-69
2023/05/06 09:45:18;;;;;;;1.33;0.57;;;20.10;93.60;;;;;;4973264;28;20470;-69
2023/05/06 09:47:46;;;;;;;4.40;1.10;;;19.50;94.00;;;;;;4974308;28;20731;-69
2023/05/06 09:50:12;;;;;;;1.90;0.70;;;19.50;94.10;;;;;;4973621;28;20598;-69
2023/05/06 09:52:38;;;;;;;1.60;0.70;;;19.40;94.70;;;;;;4960546;28;20436;-69
2023/05/06 09:55:05;;;;;;;1.80;0.80;;;19.60;93.20;;;;;;4963205;28;20465;-69
2023/05/06 09:57:32;;;;;;;2.00;1.10;;;19.90;93.10;;;;;;4973710;28;20180;-69
2023/05/06 10:00:01;;;;;;;1.63;0.77;;;19.60;94.40;;;;;;4962092;28;20438;-69
2023/05/06 10:02:27;;;;;;;1.40;0.70;;;19.70;94.90;;;;;;4970085;28;20454;-69
2023/05/06 10:04:54;;;;;;;1.63;0.83;;;20.10;93.10;;;;;;4973504;28;20526;-69
2023/05/06 10:07:24;;;;;;;2.00;0.63;;;20.10;93.80;;;;;;4961873;28;20483;-69
2023/05/06 10:09:50;;;;;;;2.80;0.80;;;20.20;94.40;;;;;;4973587;28;20450;-69
2023/05/06 10:12:17;;;;;;;1.93;0.80;;;20.40;93.60;;;;;;4973582;28;20538;-69
2023/05/06 10:14:42;;;;;;;2.37;0.70;;;20.20;93.40;;;;;;4972774;28;20291;-69
2023/05/06 10:17:10;;;;;;;1.73;0.70;;;19.90;93.40;;;;;;4973684;28;20947;-69
2023/05/06 10:19:41;;;;;;;3.70;1.13;;;20.20;94.40;;;;;;4973271;28;20703;-68
2023/05/06 10:22:38;;;;;;;1.57;0.70;;;20.20;94.40;;;;;;4958066;28;20589;-69
2023/05/06 10:25:18;;;;;;;2.47;1.00;;;20.50;94.60;;;;;;4968829;28;20498;-69
2023/05/06 10:27:45;;;;;;;1.50;0.70;;;20.50;94.00;;;;;;4973963;28;20517;-69
2023/05/06 10:30:14;;;;;;;1.73;0.90;;;20.40;94.50;;;;;;4973260;28;20427;-69
2023/05/06 10:32:43;;;;;;;2.20;0.97;;;20.20;93.70;;;;;;4967304;28;20436;-69
2023/05/06 10:35:24;;;;;;;1.50;0.70;;;19.80;94.20;;;;;;4969351;28;20434;-69
2023/05/06 10:37:51;;;;;;;2.07;0.80;;;19.60;94.00;;;;;;4966134;28;20442;-69
2023/05/06 10:40:17;;;;;;;2.23;1.00;;;19.70;94.40;;;;;;4960309;28;20438;-69
2023/05/06 10:42:43;;;;;;;2.20;0.90;;;19.90;93.80;;;;;;4970514;28;20444;-69
2023/05/06 10:45:09;;;;;;;3.00;1.20;;;20.10;93.40;;;;;;4972746;28;20447;-69
2023/05/06 10:47:57;;;;;;;2.10;0.90;;;20.00;93.20;;;;;;4972289;28;20219;-69
2023/05/06 10:50:26;;;;;;;2.00;1.07;;;20.00;92.50;;;;;;4952101;28;20427;-69
2023/05/06 10:52:54;;;;;;;2.03;0.93;;;20.00;93.70;;;;;;4968513;28;20432;-69
2023/05/06 10:55:28;;;;;;;1.93;1.00;;;20.20;93.50;;;;;;4973075;28;20455;-69
2023/05/06 10:58:21;;;;;;;2.73;1.00;;;19.90;93.20;;;;;;4971080;28;20510;-69
2023/05/06 11:00:56;;;;;;;2.03;0.90;;;19.80;93.30;;;;;;4963534;28;20749;-69
2023/05/06 11:03:22;;;;;;;2.23;0.87;;;19.90;93.70;;;;;;4971046;28;20435;-69
2023/05/06 11:05:50;;;;;;;4.43;0.73;;;19.80;92.30;;;;;;4972556;28;20436;-69
2023/05/06 11:08:24;;;;;;;2.13;0.93;;;19.90;93.20;;;;;;4968672;28;20456;-69
2023/05/06 11:10:50;;;;;;;1.70;0.70;;;19.90;92.50;;;;;;4972620;28;20434;-69
2023/05/06 11:13:28;;;;;;;5.53;1.00;;;20.10;92.40;;;;;;4964627;28;20779;-69
2023/05/06 11:15:55;;;;;;;1.93;0.70;;;20.20;92.50;;;;;;4966458;28;20436;-69
2023/05/06 11:18:27;;;;;;;1.47;0.80;;;20.30;92.50;;;;;;4964587;28;20434;-68
2023/05/06 11:20:59;;;;;;;1.50;0.67;;;20.50;91.80;;;;;;4965293;28;20440;-69
2023/05/06 11:23:48;;;;;;;2.13;0.87;;;20.70;91.00;;;;;;4957340;28;20515;-69
2023/05/06 11:26:14;;;;;;;6.00;1.10;;;20.70;91.40;;;;;;4972582;28;20518;-69
2023/05/06 11:28:49;;;;;;;1.40;0.60;;;20.70;91.10;;;;;;4971651;28;20581;-69
2023/05/06 11:31:14;;;;;;;2.40;0.90;;;21.10;91.10;;;;;;4972508;28;20504;-69
2023/05/06 11:33:48;;;;;;;1.33;0.60;;;21.10;91.40;;;;;;4959318;28;20426;-69
2023/05/06 11:36:16;;;;;;;3.73;0.83;;;20.90;91.60;;;;;;4956022;28;20188;-69
2023/05/06 11:38:42;;;;;;;3.17;0.90;;;20.60;92.40;;;;;;4959517;28;20551;-69
2023/05/06 11:41:08;;;;;;;2.20;1.17;;;20.80;92.60;;;;;;4972049;28;20518;-69
2023/05/06 11:43:33;;;;;;;1.33;0.63;;;21.10;92.50;;;;;;4959426;28;20511;-69
2023/05/06 11:45:59;;;;;;;1.37;0.57;;;21.30;91.20;;;;;;4971964;28;20231;-69
2023/05/06 11:48:24;;;;;;;2.70;0.70;;;21.40;91.30;;;;;;4971559;28;20250;-70
2023/05/06 11:50:50;;;;;;;1.73;0.80;;;21.60;91.20;;;;;;4958752;28;20179;-70
2023/05/06 11:53:18;;;;;;;1.73;0.87;;;21.50;89.10;;;;;;4964611;28;20227;-70
2023/05/06 11:55:45;;;;;;;1.67;0.70;;;21.50;89.90;;;;;;4972038;28;20183;-70
2023/05/06 11:58:15;;;;;;;1.60;0.60;;;21.70;90.60;;;;;;4967144;28;20467;-70
2023/05/06 12:00:53;;;;;;;1.70;0.80;;;21.70;90.00;;;;;;4963215;28;20421;-70
2023/05/06 12:03:19;;;;;;;4.13;0.83;;;21.70;88.30;;;;;;4971814;28;20415;-70
2023/05/06 12:05:48;;;;;;;2.30;0.73;;;21.10;89.70;;;;;;4971904;28;20962;-70
2023/05/06 12:08:24;;;;;;;1.70;0.87;;;21.00;90.70;;;;;;4972148;28;20469;-70
2023/05/06 12:11:00;;;;;;;2.10;1.03;;;20.90;91.60;;;;;;4958969;28;20445;-70
2023/05/06 12:13:27;;;;;;;1.60;0.80;;;21.30;89.50;;;;;;4966348;28;20449;-70
2023/05/06 12:15:58;;;;;;;3.03;0.70;;;21.10;88.80;;;;;;4971743;28;20442;-70
2023/05/06 12:18:24;;;;;;;1.30;0.60;;;21.00;89.90;;;;;;4965816;28;20451;-70
2023/05/06 12:20:55;;;;;;;1.60;0.80;;;21.40;90.70;;;;;;4964510;28;20463;-70
2023/05/06 12:23:22;;;;;;;5.37;0.80;;;21.70;90.00;;;;;;4956460;28;20917;-70
2023/05/06 12:26:03;;;;;;;2.37;0.90;;;21.70;89.50;;;;;;4970576;28;20530;-70
2023/05/06 12:28:30;;;;;;;1.70;0.70;;;21.70;89.70;;;;;;4971676;28;20522;-70
2023/05/06 12:30:55;;;;;;;3.70;1.00;;;21.80;89.30;;;;;;4971851;28;20415;-70
2023/05/06 12:33:21;;;;;;;6.03;1.10;;;22.00;91.00;;;;;;4961363;28;20422;-70
2023/05/06 12:35:47;;;;;;;1.60;0.80;;;22.10;90.30;;;;;;4965026;28;20226;-70
2023/05/06 12:38:15;;;;;;;2.67;0.63;;;22.50;88.80;;;;;;4975255;28;20198;-70
2023/05/06 12:40:42;;;;;;;7.93;0.90;;;22.50;90.10;;;;;;4974154;28;20455;-70
2023/05/06 12:43:09;;;;;;;2.47;1.00;;;22.60;88.90;;;;;;4975292;28;20457;-70
2023/05/06 12:45:37;;;;;;;2.47;1.00;;;22.10;89.90;;;;;;4974395;28;20453;-70